Time;durP1;ratioP1;P1;durP2;ratioP2;P2;SDS_P1;SDS_P2;PMS_P1;PMS_P2;Temp;Humidity;BMP_temperature;BMP_pressure;BME280_temperature;BME280_humidity;BME280_pressure;Samples;Min_cycle;Max_cycle;Signal;HPM_P1;HPM_P2
2022/08/27 00:00:51;;;;;;;;;2.75;2.00;;;;;22.03;50.71;100938.06;4975138;28;45990;-83
2022/08/27 00:03:33;;;;;;;;;2.75;2.75;;;;;21.91;50.55;100916.28;4978315;28;45787;-84
2022/08/27 00:06:02;;;;;;;;;3.50;2.00;;;;;21.95;50.34;100925.63;4980777;28;46057;-83
2022/08/27 00:11:33;;;;;;;;;4.25;3.25;;;;;21.86;50.91;100907.13;4975017;28;46407;-82
2022/08/27 00:18:09;;;;;;;;;;;;;;;;;;;;;
2022/08/27 00:20:35;;;;;;;;;3.75;3.00;;;;;21.98;50.64;100935.94;4972775;28;75573;-82
2022/08/27 00:23:01;;;;;;;;;3.00;2.50;;;;;21.69;50.95;100890.38;4973979;28;46096;-79
2022/08/27 00:25:37;;;;;;;;;3.00;3.00;;;;;21.66;51.18;100888.88;4974763;28;45778;-83
2022/08/27 00:31:54;;;;;;;;;3.00;3.00;;;;;21.67;50.94;100892.38;4993358;28;45810;-80
2022/08/27 00:34:47;;;;;;;;;2.75;2.00;;;;;21.80;51.35;100919.34;4897291;28;47335;-83
2022/08/27 00:40:42;;;;;;;;;3.00;3.00;;;;;21.31;51.33;100847.56;4880032;29;45959;-83
2022/08/27 00:43:08;;;;;;;;;3.00;3.00;;;;;21.37;51.16;100858.53;4883561;29;46371;-84
2022/08/27 00:45:44;;;;;;;;;3.00;3.00;;;;;21.68;51.29;100910.88;4882335;29;46537;-83
2022/08/27 00:48:14;;;;;;;;;2.25;2.25;;;;;21.78;51.23;100924.84;4879364;29;46093;-83
2022/08/27 00:50:49;;;;;;;;;2.75;2.25;;;;;21.59;50.86;100892.44;4877954;29;45674;-81
2022/08/27 00:53:21;;;;;;;;;4.00;4.00;;;;;21.84;51.15;100930.47;4877474;29;45818;-80
2022/08/27 00:56:01;;;;;;;;;2.50;2.50;;;;;21.76;51.30;100921.50;4877502;29;46241;-82
2022/08/27 00:58:35;;;;;;;;;3.00;3.00;;;;;21.83;51.58;100926.16;4877820;29;45690;-79
2022/08/27 01:01:03;;;;;;;;;3.75;2.75;;;;;21.59;51.70;100879.09;4878334;29;46083;-79
2022/08/27 01:03:29;;;;;;;;;2.00;2.00;;;;;21.71;51.63;100915.84;4878661;29;45944;-80
2022/08/27 01:06:00;;;;;;;;;2.25;2.25;;;;;21.77;51.33;100931.16;4880033;29;45718;-79
2022/08/27 01:08:32;;;;;;;;;4.00;2.00;;;;;21.73;51.87;100929.88;4880032;29;45758;-80
2022/08/27 01:11:00;;;;;;;;;2.00;2.00;;;;;21.73;51.28;100929.03;4908651;28;45924;-79
2022/08/27 01:13:30;;;;;;;;;2.00;2.00;;;;;21.55;51.94;100902.59;4973091;28;46890;-80
2022/08/27 01:15:57;;;;;;;;;3.50;3.00;;;;;21.62;51.95;100930.25;4956759;28;47415;-78
2022/08/27 01:18:25;;;;;;;;;4.00;3.00;;;;;21.63;51.64;100931.06;5043166;28;45751;-78
2022/08/27 01:21:04;;;;;;;;;3.75;3.00;;;;;21.64;52.17;100936.25;5054888;28;45665;-81
2022/08/27 01:24:04;;;;;;;;;1.75;1.75;;;;;21.62;52.13;100932.06;5036120;28;48305;-81
2022/08/27 01:26:56;;;;;;;;;3.00;3.00;;;;;21.43;52.07;100911.16;5016971;28;47393;-82
2022/08/27 01:29:21;;;;;;;;;2.75;2.00;;;;;21.40;52.04;100899.00;5036091;28;45808;-80
2022/08/27 01:32:25;;;;;;;;;;;;;;;;;;;;;
2022/08/27 01:35:04;;;;;;;;;3.00;3.00;;;;;20.93;51.96;100816.34;5053548;28;75645;-84
2022/08/27 01:37:30;;;;;;;;;3.00;2.75;;;;;21.19;51.88;100864.91;5054859;28;46240;-81
2022/08/27 01:39:57;;;;;;;;;2.00;2.00;;;;;21.23;52.39;100865.38;5054525;28;46133;-77
2022/08/27 01:45:59;;;;;;;;;1.75;1.75;;;;;21.48;52.64;100914.13;5054441;28;45631;-81
2022/08/27 01:48:41;;;;;;;;;3.00;2.50;;;;;21.51;52.37;100914.63;5052938;28;46424;-84
2022/08/27 01:51:08;;;;;;;;;3.00;2.50;;;;;21.49;52.54;100919.28;5046239;28;45817;-80
2022/08/27 01:53:34;;;;;;;;;1.75;1.75;;;;;21.49;52.34;100921.09;5054438;28;45654;-80
2022/08/27 01:55:59;;;;;;;;;4.00;2.00;;;;;21.38;52.19;100900.97;5054567;28;46302;-82
2022/08/27 02:01:46;;;;;;;;;4.25;3.00;;;;;21.46;52.44;100908.97;5053720;28;45672;-80
2022/08/27 02:04:11;;;;;;;;;2.75;2.75;;;;;21.42;52.79;100906.81;5054630;28;45704;-78
2022/08/27 02:06:37;;;;;;;;;4.50;1.75;;;;;21.39;52.93;100897.31;5035916;28;47551;-82
2022/08/27 02:09:03;;;;;;;;;2.75;2.75;;;;;21.16;52.65;100870.56;5054254;28;46443;-80
2022/08/27 02:11:28;;;;;;;;;2.00;2.00;;;;;21.17;52.64;100876.72;5054733;28;45862;-82
2022/08/27 02:17:15;;;;;;;;;3.00;1.75;;;;;21.44;52.89;100918.97;5058139;28;45791;-78
2022/08/27 02:19:41;;;;;;;;;3.00;2.75;;;;;21.32;52.50;100896.38;5055797;28;46162;-80
2022/08/27 02:22:07;;;;;;;;;4.00;1.75;;;;;21.42;52.96;100915.66;5053727;28;45777;-79
2022/08/27 02:24:32;;;;;;;;;3.00;2.00;;;;;21.16;52.66;100873.22;5054150;28;45676;-78
2022/08/27 02:33:53;;;;;;;;;2.75;2.75;;;;;21.38;52.88;100916.97;4972174;28;45891;-80
2022/08/27 02:36:19;;;;;;;;;3.50;3.00;;;;;21.08;53.11;100869.72;4974182;28;45774;-79
2022/08/27 02:38:44;;;;;;;;;2.25;2.25;;;;;21.13;53.06;100875.38;4973949;28;46381;-80
2022/08/27 02:41:10;;;;;;;;;3.00;3.00;;;;;21.32;53.16;100909.69;4973449;28;45869;-78
2022/08/27 02:43:35;;;;;;;;;3.00;2.25;;;;;21.22;53.07;100895.69;4971947;28;45916;-79
2022/08/27 02:46:01;;;;;;;;;2.75;2.75;;;;;21.29;53.01;100912.69;4972620;28;45679;-79
2022/08/27 02:48:26;;;;;;;;;3.00;3.00;;;;;21.12;53.21;100881.72;4973183;28;46835;-78
2022/08/27 02:50:53;;;;;;;;;2.50;2.25;;;;;21.02;53.14;100873.91;4974552;28;46088;-80
2022/08/27 02:53:20;;;;;;;;;2.00;2.00;;;;;21.08;52.99;100883.91;4975448;28;45723;-79
2022/08/27 02:55:46;;;;;;;;;3.75;2.25;;;;;20.95;53.12;100854.28;4974473;28;45626;-79
2022/08/27 02:58:15;;;;;;;;;2.25;2.25;;;;;20.91;53.05;100855.63;4978048;28;45672;-82
2022/08/27 03:00:41;;;;;;;;;2.25;2.00;;;;;21.12;53.35;100895.03;4980184;28;45979;-81
2022/08/27 03:03:09;;;;;;;;;4.50;3.50;;;;;20.99;53.58;100876.94;4979826;28;45695;-79
2022/08/27 03:05:35;;;;;;;;;3.25;3.00;;;;;21.10;53.35;100908.53;4979804;28;45632;-79
2022/08/27 03:08:02;;;;;;;;;2.50;2.50;;;;;21.07;53.58;100902.72;5054676;28;45680;-80
2022/08/27 03:10:28;;;;;;;;;3.50;3.00;;;;;20.78;53.48;100856.13;5069167;28;45445;-80
2022/08/27 03:12:55;;;;;;;;;2.00;2.00;;;;;20.95;53.67;100889.72;5060955;28;45472;-80
2022/08/27 03:19:12;;;;;;;;;2.25;2.25;;;;;20.95;53.87;100896.88;5055105;28;45967;-80
2022/08/27 03:21:37;;;;;;;;;1.75;1.75;;;;;20.93;53.95;100899.75;4994296;28;46188;-80
2022/08/27 03:24:04;;;;;;;;;3.75;2.50;;;;;20.90;53.97;100889.41;4995030;28;45568;-80
2022/08/27 03:26:30;;;;;;;;;3.75;2.75;;;;;20.86;53.88;100892.59;4994782;28;46195;-82
2022/08/27 03:28:57;;;;;;;;;2.75;2.00;;;;;20.84;54.02;100886.59;4994520;28;46316;-78
2022/08/27 03:31:40;;;;;;;;;3.00;2.75;;;;;20.86;53.95;100887.25;4994415;28;46003;-80
2022/08/27 03:34:51;;;;;;;;;2.25;2.25;;;;;20.69;54.01;100859.81;4994591;28;45831;-79
2022/08/27 03:37:16;;;;;;;;;3.50;2.75;;;;;20.67;53.65;100871.66;4994318;28;45915;-78
2022/08/27 03:39:41;;;;;;;;;3.00;3.00;;;;;20.82;54.29;100880.63;4977597;28;47807;-81
2022/08/27 03:42:07;;;;;;;;;3.75;2.75;;;;;20.80;54.24;100880.78;4993846;28;45702;-81
2022/08/27 03:44:32;;;;;;;;;2.75;2.25;;;;;20.68;54.11;100859.97;4994196;28;46075;-79
2022/08/27 03:46:58;;;;;;;;;2.75;2.25;;;;;20.55;54.28;100849.00;4994466;28;45576;-79
2022/08/27 03:49:24;;;;;;;;;4.25;2.75;;;;;20.52;54.37;100845.69;4994224;28;45675;-79
2022/08/27 03:51:51;;;;;;;;;2.75;2.25;;;;;20.78;54.50;100882.75;4993778;28;46357;-79
2022/08/27 03:54:16;;;;;;;;;3.50;3.50;;;;;20.71;54.39;100871.13;4994103;28;45804;-79
2022/08/27 03:56:42;;;;;;;;;2.75;2.25;;;;;20.63;54.20;100856.97;4994170;28;45770;-77
2022/08/27 03:59:07;;;;;;;;;4.25;3.25;;;;;20.79;53.98;100883.59;5052859;28;45655;-78
2022/08/27 04:01:33;;;;;;;;;1.75;1.75;;;;;20.78;54.69;100887.28;5055776;28;45830;-78
2022/08/27 04:03:59;;;;;;;;;2.25;2.25;;;;;20.63;54.24;100852.50;5056410;28;45933;-78
2022/08/27 04:06:24;;;;;;;;;3.00;2.50;;;;;20.64;54.48;100864.81;5037988;28;45638;-79
2022/08/27 04:08:49;;;;;;;;;3.00;3.00;;;;;20.75;54.62;100882.28;5056098;28;46364;-79
2022/08/27 04:11:15;;;;;;;;;2.75;2.75;;;;;20.65;54.50;100863.81;5055802;28;46035;-77
2022/08/27 04:13:40;;;;;;;;;2.75;2.75;;;;;20.56;54.63;100861.34;5055678;28;45567;-77
2022/08/27 04:16:06;;;;;;;;;3.00;2.50;;;;;20.58;54.73;100854.84;5056891;28;45562;-77
2022/08/27 04:18:32;;;;;;;;;3.25;3.00;;;;;20.66;55.07;100872.63;5056091;28;45537;-79
2022/08/27 04:21:06;;;;;;;;;2.75;2.75;;;;;20.45;54.81;100844.72;5055884;28;46151;-78
2022/08/27 04:23:33;;;;;;;;;3.50;3.00;;;;;20.61;54.95;100867.81;5055765;28;45794;-82
2022/08/27 04:25:59;;;;;;;;;4.00;3.00;;;;;20.57;54.41;100877.13;5057251;28;45771;-80
2022/08/27 04:28:24;;;;;;;;;4.00;4.00;;;;;20.47;55.08;100857.81;5056808;28;45519;-79
2022/08/27 04:34:11;;;;;;;;;2.75;2.75;;;;;20.46;55.30;100869.47;5055498;28;46042;-79
2022/08/27 04:36:37;;;;;;;;;3.50;3.00;;;;;20.41;55.32;100864.66;5055706;28;45523;-79
2022/08/27 04:39:02;;;;;;;;;4.00;2.75;;;;;20.19;55.30;100849.31;5055266;28;46460;-79
2022/08/27 04:41:32;;;;;;;;;4.00;4.00;;;;;20.23;55.29;100860.47;5055149;28;45815;-80
2022/08/27 04:44:02;;;;;;;;;4.50;4.50;;;;;20.21;55.55;100857.97;5055150;28;45721;-81
2022/08/27 04:46:30;;;;;;;;;6.00;4.50;;;;;20.26;55.53;100876.91;5055537;28;45599;-79
2022/08/27 04:48:58;;;;;;;;;3.50;3.00;;;;;20.13;55.39;100857.97;5055438;28;46500;-78
2022/08/27 04:51:24;;;;;;;;;4.00;3.00;;;;;20.00;55.54;100845.13;5054857;28;46125;-79
2022/08/27 04:53:50;;;;;;;;;6.00;5.50;;;;;20.12;55.44;100856.28;5055495;28;45978;-80
2022/08/27 04:56:17;;;;;;;;;5.25;4.00;;;;;20.22;55.53;100874.75;5055405;28;45702;-80
2022/08/27 04:58:43;;;;;;;;;3.50;3.25;;;;;20.17;55.80;100853.97;5055055;28;45533;-80
2022/08/27 05:04:30;;;;;;;;;5.50;4.25;;;;;20.17;55.76;100874.44;5055587;28;45617;-79
2022/08/27 05:06:56;;;;;;;;;4.75;4.25;;;;;20.08;55.66;100852.31;5056263;28;45745;-82
2022/08/27 05:09:22;;;;;;;;;3.25;3.00;;;;;20.17;55.91;100874.44;5055809;28;46489;-81
2022/08/27 05:11:47;;;;;;;;;3.25;3.00;;;;;20.15;55.68;100879.06;5054797;28;46448;-82
2022/08/27 05:14:15;;;;;;;;;4.50;4.00;;;;;20.13;55.91;100881.91;5055337;28;45720;-81
2022/08/27 05:16:41;;;;;;;;;3.50;3.50;;;;;20.05;55.56;100871.25;5056339;28;45695;-81
2022/08/27 05:19:10;;;;;;;;;3.00;3.00;;;;;20.08;55.64;100878.91;5056465;28;46065;-83
2022/08/27 05:21:38;;;;;;;;;3.00;3.00;;;;;19.80;55.89;100837.63;5056108;28;45656;-84
2022/08/27 05:24:06;;;;;;;;;3.00;3.00;;;;;20.11;55.76;100890.06;5055550;28;45641;-82
2022/08/27 05:26:33;;;;;;;;;5.75;5.00;;;;;20.12;56.26;100896.22;5056414;28;45643;-80
2022/08/27 05:28:59;;;;;;;;;4.00;4.00;;;;;20.11;55.57;100894.53;5056736;28;45724;-82
2022/08/27 05:31:25;;;;;;;;;5.50;5.00;;;;;19.99;56.13;100880.72;5055781;28;46326;-81
2022/08/27 05:33:50;;;;;;;;;4.00;3.00;;;;;19.96;56.25;100875.72;5056194;28;45635;-83
2022/08/27 05:36:20;;;;;;;;;4.25;3.00;;;;;20.02;55.97;100887.53;5034400;28;45782;-82
2022/08/27 05:38:50;;;;;;;;;5.50;4.25;;;;;20.07;56.02;100904.69;5052073;28;46565;-83
2022/08/27 05:41:19;;;;;;;;;4.75;4.00;;;;;20.05;55.74;100904.00;5054565;28;45956;-82
2022/08/27 05:43:46;;;;;;;;;4.25;4.25;;;;;19.78;55.77;100864.38;5036348;28;45575;-80
2022/08/27 05:49:32;;;;;;;;;4.50;4.50;;;;;19.94;55.95;100904.31;5057243;28;45732;-84
2022/08/27 05:51:58;;;;;;;;;5.00;4.00;;;;;19.98;55.70;100904.81;5057290;28;46400;-81
2022/08/27 05:54:23;;;;;;;;;4.25;4.00;;;;;19.96;56.38;100906.81;5058525;28;45499;-82
2022/08/27 05:56:48;;;;;;;;;4.50;4.50;;;;;19.79;56.13;100876.69;5057065;28;45555;-82
2022/08/27 06:01:58;;;;;;;;;4.75;4.75;;;;;19.94;56.11;100903.47;5059651;28;46213;-82
2022/08/27 06:04:24;;;;;;;;;5.00;5.00;;;;;19.81;56.10;100887.97;5056231;28;45641;-83
2022/08/27 06:06:51;;;;;;;;;4.75;4.75;;;;;19.89;56.21;100901.28;5056769;28;45728;-83
2022/08/27 06:09:20;;;;;;;;;5.00;5.00;;;;;19.88;56.20;100898.78;5056130;28;45608;-81
2022/08/27 06:11:46;;;;;;;;;7.25;4.25;;;;;19.82;56.29;100894.94;5054673;28;45629;-82
2022/08/27 06:14:12;;;;;;;;;6.25;5.00;;;;;19.80;56.52;100896.97;5054496;28;45867;-84
2022/08/27 06:19:59;;;;;;;;;6.00;4.75;;;;;19.64;56.65;100884.44;5052566;28;45976;-82
2022/08/27 06:22:25;;;;;;;;;4.50;4.50;;;;;19.71;56.75;100897.91;5054408;28;46041;-81
2022/08/27 06:24:50;;;;;;;;;6.00;5.00;;;;;19.73;56.67;100903.91;5054563;28;45720;-83
2022/08/27 06:27:18;;;;;;;;;7.00;5.75;;;;;19.67;56.52;100899.22;5054948;28;45646;-83
2022/08/27 06:29:47;;;;;;;;;4.50;3.25;;;;;19.54;56.82;100881.06;5036759;28;46369;-82
2022/08/27 06:32:16;;;;;;;;;5.00;5.00;;;;;19.66;56.51;100902.88;5036847;28;46869;-81
2022/08/27 06:34:41;;;;;;;;;7.00;6.50;;;;;19.70;56.54;100914.88;5040611;28;45693;-81
2022/08/27 06:37:38;;;;;;;;;4.75;4.75;;;;;19.39;56.93;100860.53;5063454;28;45665;-83
2022/08/27 06:40:22;;;;;;;;;6.00;5.75;;;;;19.35;56.79;100848.56;4997974;28;46176;-83
2022/08/27 06:43:28;;;;;;;;;6.00;5.00;;;;;19.18;56.87;100832.56;4992480;28;45807;-82
2022/08/27 06:45:56;;;;;;;;;7.25;5.75;;;;;19.35;56.52;100848.56;4992129;28;45838;-84
2022/08/27 06:48:22;;;;;;;;;4.50;4.00;;;;;19.17;57.23;100824.72;4975778;28;46005;-84
2022/08/27 06:50:47;;;;;;;;;9.00;7.25;;;;;19.54;56.79;100874.94;5008360;28;46338;-83
2022/08/27 06:53:13;;;;;;;;;9.25;7.25;;;;;19.52;56.64;100879.56;4975035;28;45928;-81
2022/08/27 06:55:44;;;;;;;;;5.00;5.00;;;;;19.78;56.32;100922.88;4992031;28;45764;-82
2022/08/27 06:58:11;;;;;;;;;6.00;5.25;;;;;19.52;56.76;100885.72;4992480;28;45766;-83
2022/08/27 07:00:37;;;;;;;;;7.00;6.00;;;;;19.71;56.91;100919.19;4974746;28;48840;-83
2022/08/27 07:03:04;;;;;;;;;7.25;5.50;;;;;19.50;57.02;100881.53;4974267;28;46670;-84
2022/08/27 07:05:55;;;;;;;;;;;;;;;;;;;;;
2022/08/27 07:09:31;;;;;;;;;;;;;;;;;;;;;
2022/08/27 07:12:14;;;;;;;;;6.00;5.75;;;;;19.65;56.47;100917.16;4930617;28;46807;-83
2022/08/27 07:18:51;;;;;;;;;7.75;7.00;;;;;19.50;56.47;100882.38;4860330;29;45910;-82
2022/08/27 07:21:21;;;;;;;;;6.00;6.00;;;;;19.54;56.94;100873.09;4804173;29;45685;-83
2022/08/27 07:23:48;;;;;;;;;8.00;7.00;;;;;19.85;56.88;100926.56;4803025;29;47010;-81
2022/08/27 07:26:15;;;;;;;;;6.00;6.00;;;;;19.97;56.74;100940.41;4789696;29;46129;-82
2022/08/27 07:29:02;;;;;;;;;7.00;6.75;;;;;19.98;56.91;100948.19;4765418;29;45884;-81
2022/08/27 07:31:28;;;;;;;;;7.50;6.50;;;;;19.97;56.82;100933.22;4764954;29;45901;-79
2022/08/27 07:33:53;;;;;;;;;8.50;6.75;;;;;19.95;56.79;100937.88;4766332;29;46295;-82
2022/08/27 07:36:39;;;;;;;;;6.25;5.25;;;;;19.86;56.38;100925.56;4784093;29;46568;-83
2022/08/27 07:39:05;;;;;;;;;6.00;6.00;;;;;20.02;56.73;100943.41;4783361;29;45782;-82
2022/08/27 07:44:23;;;;;;;;;9.25;8.00;;;;;19.67;56.49;100880.63;4782989;29;45872;-84
2022/08/27 07:44:26;;;;;;;;;8.00;6.75;;;;;20.04;56.43;100944.88;4783286;29;45964;-82
2022/08/27 07:46:57;;;;;;;;;6.75;6.25;;;;;20.06;56.70;100940.25;4785009;29;46328;-81
2022/08/27 07:49:23;;;;;;;;;5.25;5.25;;;;;20.08;56.46;100950.75;4816804;29;45715;-81
2022/08/27 07:51:49;;;;;;;;;9.00;8.50;;;;;19.95;56.40;100919.28;4845544;29;45681;-81
2022/08/27 07:54:15;;;;;;;;;7.25;6.00;;;;;20.08;56.30;100934.78;4887529;28;45742;-80
2022/08/27 07:56:43;;;;;;;;;7.50;7.00;;;;;20.15;56.35;100937.59;4935910;28;46197;-83
2022/08/27 07:59:08;;;;;;;;;8.00;7.25;;;;;20.25;56.17;100948.94;4977648;28;45670;-81
2022/08/27 08:01:35;;;;;;;;;8.00;7.25;;;;;20.23;56.43;100949.13;4994150;28;45844;-83
2022/08/27 08:07:17;;;;;;;;;9.00;7.00;;;;;20.18;56.04;100916.00;5014164;28;46048;-82
2022/08/27 08:09:42;;;;;;;;;7.00;7.00;;;;;20.41;55.78;100959.63;5038072;28;45704;-84
2022/08/27 08:12:14;;;;;;;;;7.75;6.25;;;;;19.94;55.83;100869.72;5056182;28;45558;-82
2022/08/27 08:14:44;;;;;;;;;6.00;6.00;;;;;20.25;55.51;100923.16;5038165;28;47646;-81
2022/08/27 08:17:10;;;;;;;;;7.00;7.00;;;;;20.43;55.80;100949.66;5037474;28;47150;-83
2022/08/27 08:19:35;;;;;;;;;6.00;6.00;;;;;20.56;55.44;100951.84;5037506;28;45841;-80
2022/08/27 08:22:01;;;;;;;;;7.00;5.50;;;;;20.32;55.38;100907.41;5056118;28;45888;-83
2022/08/27 08:24:26;;;;;;;;;6.00;6.00;;;;;20.53;55.10;100948.50;5056526;28;46516;-84
2022/08/27 08:26:52;;;;;;;;;7.25;7.00;;;;;20.55;55.08;100942.19;5056093;28;45716;-83
2022/08/27 08:29:17;;;;;;;;;5.00;5.00;;;;;20.35;55.15;100905.22;5038038;28;45668;-81
2022/08/27 08:31:43;;;;;;;;;6.50;6.00;;;;;20.76;54.74;100956.69;5056239;28;45639;-80
2022/08/27 08:34:09;;;;;;;;;7.75;6.50;;;;;20.52;54.60;100911.41;5056527;28;45610;-82
2022/08/27 08:36:35;;;;;;;;;5.25;4.75;;;;;20.86;54.59;100962.69;5055129;28;46231;-82
2022/08/27 08:39:00;;;;;;;;;5.00;4.75;;;;;20.90;54.45;100949.84;5056442;28;45682;-81
2022/08/27 08:41:55;;;;;;;;;5.25;5.00;;;;;20.99;54.42;100950.69;5055976;28;45591;-81
2022/08/27 08:44:31;;;;;;;;;8.75;8.25;;;;;20.93;53.90;100936.22;5056291;28;46080;-80
2022/08/27 08:47:06;;;;;;;;;6.75;6.50;;;;;21.07;54.10;100956.84;5057807;28;46233;-80
2022/08/27 08:49:32;;;;;;;;;4.75;4.25;;;;;21.12;53.72;100953.66;5059550;28;45619;-80
2022/08/27 08:52:09;;;;;;;;;4.00;4.00;;;;;21.17;53.21;100957.50;5055874;28;45555;-81
2022/08/27 08:54:35;;;;;;;;;4.50;4.00;;;;;21.01;52.48;100911.38;5055811;28;46831;-81
2022/08/27 08:57:23;;;;;;;;;4.75;3.75;;;;;21.27;52.16;100952.00;5055254;28;45875;-80
2022/08/27 09:00:15;;;;;;;;;4.50;3.75;;;;;21.30;51.78;100941.84;5055853;28;45756;-79
2022/08/27 09:02:53;;;;;;;;;4.00;3.50;;;;;21.33;50.71;100951.31;5052222;28;45937;-84
2022/08/27 09:05:20;;;;;;;;;4.00;4.00;;;;;21.29;51.54;100950.00;5058214;28;45665;-83
2022/08/27 09:07:48;;;;;;;;;3.00;3.00;;;;;21.41;51.02;100947.81;5061272;28;46280;-82
2022/08/27 09:10:14;;;;;;;;;4.25;4.00;;;;;21.44;50.60;100950.94;5060046;28;45552;-81
2022/08/27 09:12:40;;;;;;;;;4.25;3.75;;;;;21.47;50.09;100950.63;5058098;28;45542;-81
2022/08/27 09:15:15;;;;;;;;;1.00;1.00;;;;;21.22;49.68;100919.69;5039571;28;47925;-79
2022/08/27 09:17:42;;;;;;;;;2.75;2.75;;;;;21.47;49.58;100947.97;5057154;28;46209;-80
2022/08/27 09:20:09;;;;;;;;;4.00;4.00;;;;;21.46;49.90;100938.28;5055112;28;45698;-79
2022/08/27 09:22:50;;;;;;;;;5.50;3.25;;;;;21.63;50.30;100961.25;5055415;28;45737;-81
2022/08/27 09:25:30;;;;;;;;;3.00;3.00;;;;;21.68;49.52;100960.72;5055606;28;45691;-80
2022/08/27 09:28:05;;;;;;;;;5.25;4.00;;;;;21.70;49.07;100959.53;5055396;28;46065;-81
2022/08/27 09:33:27;;;;;;;;;3.00;3.00;;;;;21.71;49.06;100945.19;5055347;28;45759;-82
2022/08/27 09:35:52;;;;;;;;;4.50;3.50;;;;;21.79;49.33;100960.34;5057239;28;45609;-80
2022/08/27 09:38:27;;;;;;;;;3.25;3.00;;;;;21.84;49.06;100951.81;5061440;28;46520;-83
2022/08/27 09:40:57;;;;;;;;;4.25;4.00;;;;;21.61;48.32;100909.91;5064260;28;45866;-82
2022/08/27 09:43:30;;;;;;;;;3.00;3.00;;;;;21.82;48.58;100943.97;5047557;28;45702;-80
2022/08/27 09:49:18;;;;;;;;;6.75;5.25;;;;;22.00;48.63;100973.13;5066647;28;45890;-83
2022/08/27 09:52:00;;;;;;;;;5.50;5.00;;;;;22.04;48.17;100961.09;5051288;28;45666;-82
2022/08/27 09:54:57;;;;;;;;;;;;;;;;;;;;;
2022/08/27 09:57:41;;;;;;;;;5.00;4.00;;;;;22.05;47.49;100946.75;5056218;28;74900;-82
2022/08/27 10:00:15;;;;;;;;;3.50;3.25;;;;;22.21;47.80;100965.34;5036421;28;47845;-82
2022/08/27 10:06:02;;;;;;;;;3.25;3.25;;;;;22.25;47.49;100949.78;5054548;28;45966;-83
2022/08/27 10:08:50;;;;;;;;;4.00;4.00;;;;;22.35;47.35;100969.13;5054161;28;46726;-82
2022/08/27 10:11:30;;;;;;;;;5.00;4.75;;;;;22.38;46.62;100958.06;5053940;28;46772;-83
2022/08/27 10:14:30;;;;;;;;;5.00;4.00;;;;;21.91;46.24;100884.25;5036366;28;45768;-84
2022/08/27 10:17:10;;;;;;;;;4.50;4.00;;;;;22.38;47.01;100963.41;5034109;28;46007;-83
2022/08/27 10:19:44;;;;;;;;;4.75;4.75;;;;;22.44;46.80;100960.88;5053960;28;45745;-81
2022/08/27 10:22:22;;;;;;;;;4.75;4.25;;;;;22.48;46.71;100964.84;5035655;28;47290;-83
2022/08/27 10:24:57;;;;;;;;;6.50;5.00;;;;;22.51;46.84;100953.78;5054324;28;45693;-81
2022/08/27 10:27:35;;;;;;;;;4.25;4.25;;;;;22.49;46.18;100946.97;5054318;28;45544;-84
2022/08/27 10:30:11;;;;;;;;;4.00;4.00;;;;;22.60;46.17;100951.91;5019084;28;47403;-80
2022/08/27 10:32:51;;;;;;;;;4.50;4.50;;;;;22.63;45.86;100942.69;5053781;28;46423;-81
2022/08/27 10:35:46;;;;;;;;;4.25;3.25;;;;;22.54;45.41;100933.91;5053680;28;45725;-83
2022/08/27 10:38:35;;;;;;;;;4.50;4.00;;;;;22.74;45.85;100948.47;5054971;28;45753;-83
2022/08/27 10:41:29;;;;;;;;;3.00;3.00;;;;;22.82;45.07;100947.59;5053616;28;45795;-82
2022/08/27 10:44:07;;;;;;;;;3.00;3.00;;;;;22.90;44.59;100952.84;5053007;28;46665;-83
2022/08/27 10:50:00;;;;;;;;;5.25;4.25;;;;;22.98;44.66;100947.44;5055409;28;45694;-84
2022/08/27 10:52:46;;;;;;;;;3.50;3.25;;;;;22.82;44.16;100908.34;5055358;28;46402;-84
2022/08/27 10:55:51;;;;;;;;;3.00;3.00;;;;;23.05;43.92;100936.84;5057255;28;45757;-82
2022/08/27 10:58:16;;;;;;;;;4.00;4.00;;;;;23.09;44.49;100944.34;5052577;28;45630;-81
2022/08/27 11:01:16;;;;;;;;;3.00;2.00;;;;;22.93;44.19;100917.75;5036667;28;45716;-84
2022/08/27 11:07:16;;;;;;;;;5.00;4.25;;;;;23.00;43.69;100913.31;5053345;28;46039;-81
2022/08/27 11:09:50;;;;;;;;;4.00;4.00;;;;;23.14;42.95;100919.72;5053444;28;45745;-81
2022/08/27 11:12:33;;;;;;;;;6.25;5.75;;;;;23.20;42.51;100929.69;5052540;28;45706;-82
2022/08/27 11:15:07;;;;;;;;;4.00;4.00;;;;;23.16;43.10;100907.81;5053758;28;45668;-82
2022/08/27 11:18:16;;;;;;;;;4.75;4.25;;;;;23.29;43.47;100915.19;5053382;28;45923;-84
2022/08/27 11:20:52;;;;;;;;;5.00;5.00;;;;;22.97;42.40;100855.72;4973757;28;45909;-80
2022/08/27 11:23:33;;;;;;;;;4.25;3.50;;;;;23.19;41.54;100891.41;4979367;28;45609;-84
2022/08/27 11:26:02;;;;;;;;;4.00;4.00;;;;;23.18;41.85;100880.91;4978566;28;46902;-82
2022/08/27 11:28:57;;;;;;;;;4.50;3.00;;;;;23.42;41.56;100920.75;4978346;28;48329;-83
2022/08/27 11:31:28;;;;;;;;;3.25;3.00;;;;;23.43;41.17;100903.66;4994641;28;45662;-82
2022/08/27 11:34:02;;;;;;;;;2.50;2.50;;;;;23.44;40.89;100906.16;4994723;28;45686;-82
2022/08/27 11:36:33;;;;;;;;;5.00;4.00;;;;;23.48;40.80;100900.50;4995366;28;45665;-83
2022/08/27 11:39:12;;;;;;;;;3.25;3.00;;;;;23.50;40.76;100901.13;4994993;28;46196;-82
2022/08/27 11:42:11;;;;;;;;;;;;;;;;;;;;;
2022/08/27 11:45:27;;;;;;;;;4.00;3.00;;;;;23.59;40.73;100908.03;4993012;28;68996;-83
2022/08/27 11:48:38;;;;;;;;;4.00;4.00;;;;;23.47;40.47;100864.06;4980995;28;48105;-83
2022/08/27 11:51:13;;;;;;;;;3.00;3.00;;;;;23.64;40.71;100898.44;4935552;28;46075;-83
2022/08/27 11:54:00;;;;;;;;;4.00;4.00;;;;;23.67;41.05;100907.94;4935491;28;45751;-83
2022/08/27 11:56:29;;;;;;;;;3.00;3.00;;;;;23.69;40.40;100903.22;4881789;29;45868;-80
2022/08/27 11:59:07;;;;;;;;;2.50;2.00;;;;;23.54;39.96;100871.13;4935263;28;45685;-80
2022/08/27 12:01:39;;;;;;;;;4.50;3.00;;;;;23.68;39.77;100899.72;4935180;28;45817;-83
2022/08/27 12:04:31;;;;;;;;;3.00;2.50;;;;;23.77;40.20;100900.44;4935533;28;45723;-81
2022/08/27 12:07:28;;;;;;;;;4.00;4.00;;;;;23.80;40.01;100894.72;4935592;28;45654;-80
2022/08/27 12:10:05;;;;;;;;;3.50;3.00;;;;;23.87;40.21;100902.81;4918934;28;48139;-83
2022/08/27 12:13:11;;;;;;;;;3.75;3.25;;;;;23.93;39.07;100899.38;4935168;28;47172;-81
2022/08/27 12:15:58;;;;;;;;;3.00;3.00;;;;;23.97;39.31;100896.13;4935277;28;45796;-83
2022/08/27 12:22:00;;;;;;;;;5.25;3.50;;;;;23.88;38.12;100867.84;4934855;28;45884;-84
2022/08/27 12:25:02;;;;;;;;;6.50;4.00;;;;;24.08;37.93;100895.63;4952497;28;46287;-86
2022/08/27 12:27:31;;;;;;;;;2.50;2.00;;;;;23.73;37.93;100841.13;4989382;28;45748;-81
2022/08/27 12:29:58;;;;;;;;;3.50;3.00;;;;;24.04;37.84;100889.00;4994691;28;45724;-82
2022/08/27 12:36:49;;;;;;;;;5.00;4.25;;;;;24.08;37.34;100892.97;5059260;28;45830;-80
2022/08/27 12:39:18;;;;;;;;;3.00;3.00;;;;;24.06;37.95;100875.44;4957146;28;45778;-82
2022/08/27 12:41:46;;;;;;;;;4.00;4.00;;;;;24.19;38.22;100892.50;4956257;28;45725;-82
2022/08/27 12:44:15;;;;;;;;;3.00;3.00;;;;;24.19;38.46;100880.94;4955294;28;45617;-80
2022/08/27 12:47:15;;;;;;;;;3.50;3.50;;;;;24.19;38.39;100873.75;4954855;28;46226;-85
2022/08/27 12:53:30;;;;;;;;;3.00;3.00;;;;;24.06;37.98;100841.47;4879790;28;45783;-82
2022/08/27 12:56:00;;;;;;;;;5.00;4.00;;;;;24.33;38.03;100876.56;4878182;29;46557;-83
2022/08/27 12:58:59;;;;;;;;;3.00;3.00;;;;;24.36;38.15;100873.50;4878656;29;45972;-81
2022/08/27 13:01:27;;;;;;;;;3.00;3.00;;;;;24.38;36.46;100880.34;4877479;29;45779;-80
2022/08/27 13:03:54;;;;;;;;;3.00;2.50;;;;;24.39;37.06;100875.81;4877881;29;45703;-80
2022/08/27 13:06:32;;;;;;;;;3.00;3.00;;;;;24.37;37.12;100873.31;4880008;29;46289;-82
2022/08/27 13:09:04;;;;;;;;;3.00;2.25;;;;;24.24;36.98;100841.03;4879108;28;48337;-78
2022/08/27 13:11:42;;;;;;;;;2.00;2.00;;;;;24.43;36.12;100867.19;4916216;28;45669;-80
2022/08/27 13:14:20;;;;;;;;;3.00;2.75;;;;;24.46;36.51;100879.34;4915679;28;45904;-78
2022/08/27 13:16:52;;;;;;;;;2.00;2.00;;;;;24.46;35.55;100866.78;4937266;28;46355;-81
2022/08/27 13:19:23;;;;;;;;;3.00;3.00;;;;;24.48;35.79;100870.13;4954053;28;46119;-80
2022/08/27 13:21:50;;;;;;;;;2.50;2.50;;;;;24.52;35.55;100866.03;4953495;28;45732;-79
2022/08/27 13:24:26;;;;;;;;;3.00;3.00;;;;;24.57;35.64;100865.44;4954497;28;45760;-81